Time;durP1;ratioP1;P1;durP2;ratioP2;P2;SDS_P1;SDS_P2;PMS_P1;PMS_P2;Temp;Humidity;BMP_temperature;BMP_pressure;BME280_temperature;BME280_humidity;BME280_pressure;Samples;Min_cycle;Max_cycle;Signal;HPM_P1;HPM_P2
2022/06/11 00:01:34;;;;;;;6.73;2.50;;;14.30;99.90;;;;;;5079792;28;20828;-86
2022/06/11 00:04:05;;;;;;;10.63;7.27;;;14.30;99.90;;;;;;5077116;28;20426;-85
2022/06/11 00:06:35;;;;;;;5.93;5.27;;;14.10;99.90;;;;;;5076119;28;20472;-84
2022/06/11 00:09:00;;;;;;;6.40;5.40;;;14.10;99.90;;;;;;5080420;28;21080;-85
2022/06/11 00:11:26;;;;;;;7.70;4.80;;;14.10;99.90;;;;;;5078812;28;20434;-84
2022/06/11 00:13:53;;;;;;;5.17;3.90;;;14.00;99.90;;;;;;5062560;28;20173;-83
2022/06/11 00:16:22;;;;;;;6.00;3.77;;;14.00;99.90;;;;;;5077512;28;20442;-83
2022/06/11 00:18:50;;;;;;;6.43;3.63;;;14.00;99.90;;;;;;5064617;28;20459;-83
2022/06/11 00:21:15;;;;;;;4.43;3.17;;;14.00;99.90;;;;;;5076313;28;20415;-83
2022/06/11 00:23:42;;;;;;;9.90;2.33;;;14.00;99.90;;;;;;5074014;28;20438;-83
2022/06/11 00:26:09;;;;;;;6.40;2.73;;;14.00;99.90;;;;;;5049192;28;20445;-83
2022/06/11 00:28:35;;;;;;;6.30;3.30;;;14.00;99.90;;;;;;5056009;28;20419;-83
2022/06/11 00:31:02;;;;;;;4.43;2.90;;;14.00;99.90;;;;;;5067969;28;20423;-84
2022/06/11 00:33:27;;;;;;;7.37;2.67;;;14.00;99.90;;;;;;5082230;28;20468;-82
2022/06/11 00:35:53;;;;;;;4.10;2.40;;;;;;;;;;5076404;28;20848;-83
2022/06/11 00:38:20;;;;;;;5.53;2.70;;;13.90;99.90;;;;;;5054008;28;20532;-84
2022/06/11 00:40:47;;;;;;;6.87;2.97;;;13.70;99.90;;;;;;5052444;28;20443;-84
2022/06/11 00:43:17;;;;;;;7.10;3.07;;;13.70;99.90;;;;;;5052826;28;20450;-83
2022/06/11 00:45:54;;;;;;;3.83;2.37;;;13.60;99.90;;;;;;5050704;28;20451;-83
2022/06/11 00:48:27;;;;;;;4.83;2.90;;;13.60;99.90;;;;;;5075229;28;20463;-82
2022/06/11 00:51:06;;;;;;;4.73;3.17;;;13.60;99.90;;;;;;5070585;28;20534;-82
2022/06/11 00:53:43;;;;;;;3.63;2.63;;;13.50;99.90;;;;;;5074762;28;20426;-83
2022/06/11 00:56:35;;;;;;;3.40;2.77;;;13.50;99.90;;;;;;5068890;28;20518;-83
2022/06/11 00:59:03;;;;;;;6.90;2.80;;;13.30;99.90;;;;;;5066508;28;20442;-82
2022/06/11 01:01:29;;;;;;;3.80;2.70;;;13.20;99.90;;;;;;5069748;28;20474;-83
2022/06/11 01:03:58;;;;;;;3.10;2.90;;;13.20;99.90;;;;;;5076655;28;20728;-82
2022/06/11 01:06:37;;;;;;;4.33;2.80;;;13.10;99.90;;;;;;5068877;28;20965;-83
2022/06/11 01:09:04;;;;;;;3.97;2.50;;;13.10;99.90;;;;;;5064373;28;20522;-83
2022/06/11 01:11:58;;;;;;;5.28;3.15;;;13.00;99.90;;;;;;5070893;28;20187;-83
2022/06/11 01:14:34;;;;;;;5.30;3.17;;;13.00;99.90;;;;;;5058588;28;20180;-83
2022/06/11 01:17:14;;;;;;;4.35;2.78;;;13.00;99.90;;;;;;5072364;28;20211;-82
2022/06/11 01:20:03;;;;;;;3.77;3.33;;;13.00;99.90;;;;;;5073216;28;20203;-82
2022/06/11 01:22:48;;;;;;;3.83;3.33;;;12.80;99.90;;;;;;5073043;28;20446;-81
2022/06/11 01:25:43;;;;;;;4.15;3.28;;;12.80;99.90;;;;;;5052323;28;20181;-81
2022/06/11 01:28:21;;;;;;;3.10;2.60;;;12.90;99.90;;;;;;5050686;23;20237;-83
2022/06/11 01:30:53;;;;;;;4.25;3.08;;;12.90;99.90;;;;;;5038186;28;20700;-83
2022/06/11 01:33:29;;;;;;;6.60;3.53;;;14.10;99.90;;;;;;5019475;28;20225;-85
2022/06/11 01:36:18;;;;;;;3.97;3.55;;;12.90;99.90;;;;;;5052555;28;20562;-86
2022/06/11 01:38:57;;;;;;;5.65;3.10;;;13.10;99.90;;;;;;5030384;28;20452;-86
2022/06/11 01:41:42;;;;;;;4.27;3.07;;;13.20;99.90;;;;;;5030958;28;20182;-81
2022/06/11 01:44:13;;;;;;;5.07;2.93;;;13.10;99.90;;;;;;5012445;28;21321;-83
2022/06/11 01:46:46;;;;;;;3.23;2.93;;;13.10;99.90;;;;;;5017226;28;20483;-82
2022/06/11 01:49:21;;;;;;;6.15;3.22;;;13.00;99.90;;;;;;5017129;28;21529;-82
2022/06/11 01:52:08;;;;;;;5.40;3.17;;;13.00;99.90;;;;;;5024406;28;20204;-85
2022/06/11 01:54:54;;;;;;;5.20;4.20;;;12.80;99.90;;;;;;5035507;28;20170;-81
2022/06/11 01:57:41;;;;;;;4.60;3.40;;;12.80;99.90;;;;;;5052510;28;20177;-82
2022/06/11 02:00:24;;;;;;;7.65;3.75;;;12.80;99.90;;;;;;5040417;28;20439;-82
2022/06/11 02:03:15;;;;;;;4.70;3.10;;;12.70;99.90;;;;;;5045737;28;20702;-81
2022/06/11 02:06:18;;;;;;;10.95;4.50;;;12.70;99.90;;;;;;5029095;28;20502;-85
2022/06/11 02:08:55;;;;;;;5.60;4.20;;;12.60;99.90;;;;;;5033447;28;20197;-86
2022/06/11 02:11:44;;;;;;;10.73;4.95;;;12.60;99.90;;;;;;5033346;28;20434;-83
2022/06/11 02:14:34;;;;;;;10.30;4.20;;;12.60;99.90;;;;;;5031786;28;20190;-81
2022/06/11 02:17:11;;;;;;;6.20;4.38;;;12.50;99.90;;;;;;5034588;28;20503;-80
2022/06/11 02:19:43;;;;;;;12.00;5.27;;;12.40;99.90;;;;;;5052382;28;20284;-85
2022/06/11 02:22:19;;;;;;;7.65;5.50;;;12.40;99.90;;;;;;5031910;28;20428;-87
2022/06/11 02:24:51;;;;;;;7.30;4.33;;;12.40;99.90;;;;;;5029826;28;20208;-82
2022/06/11 02:27:22;;;;;;;4.65;4.10;;;12.30;99.90;;;;;;5031680;28;20456;-86
2022/06/11 02:29:49;;;;;;;8.23;5.65;;;12.30;99.90;;;;;;5040458;28;20192;-80
2022/06/11 02:32:18;;;;;;;6.63;4.90;;;12.40;99.90;;;;;;5046486;28;20185;-82
2022/06/11 02:34:53;;;;;;;10.52;4.07;;;12.40;99.90;;;;;;5050237;28;20267;-85
2022/06/11 02:37:29;;;;;;;4.15;3.60;;;12.40;99.90;;;;;;5038725;28;20177;-85
2022/06/11 02:40:02;;;;;;;6.20;3.90;;;12.30;99.90;;;;;;5036193;28;20215;-83
2022/06/11 02:42:28;;;;;;;6.85;4.95;;;12.20;99.90;;;;;;5034815;28;20186;-85
2022/06/11 02:44:53;;;;;;;9.45;6.10;;;12.10;99.90;;;;;;5036994;28;20209;-85
2022/06/11 02:47:20;;;;;;;11.23;4.93;;;12.10;99.90;;;;;;5036900;28;20210;-84
2022/06/11 02:49:47;;;;;;;9.55;4.32;;;;;;;;;;5036279;28;20658;-84
2022/06/11 02:52:17;;;;;;;4.72;4.10;;;12.10;99.90;;;;;;5036813;28;21053;-84
2022/06/11 02:54:43;;;;;;;8.90;4.60;;;12.10;99.90;;;;;;5034340;28;20251;-84
2022/06/11 02:57:15;;;;;;;8.40;5.10;;;12.10;99.90;;;;;;5034827;28;20177;-83
2022/06/11 02:59:42;;;;;;;7.38;5.22;;;12.10;99.90;;;;;;5036301;28;20424;-82
2022/06/11 03:02:08;;;;;;;9.40;4.80;;;;;;;;;;5034113;28;20209;-84
2022/06/11 03:04:33;;;;;;;7.47;5.00;;;11.90;99.90;;;;;;5034611;28;20182;-82
2022/06/11 03:07:00;;;;;;;10.00;4.97;;;11.90;99.90;;;;;;5043547;28;20467;-84
2022/06/11 03:09:28;;;;;;;5.50;4.20;;;11.90;99.90;;;;;;5048821;28;20715;-83
2022/06/11 03:11:55;;;;;;;5.35;4.47;;;;;;;;;;5042088;28;20221;-83
2022/06/11 03:14:21;;;;;;;9.57;4.75;;;;;;;;;;5032526;28;20629;-84
2022/06/11 03:16:47;;;;;;;9.20;5.32;;;11.70;99.90;;;;;;5020127;28;20289;-84
2022/06/11 03:19:13;;;;;;;7.65;5.30;;;;;;;;;;5032231;28;20189;-83
2022/06/11 03:21:40;;;;;;;5.72;5.07;;;11.60;99.90;;;;;;5034340;28;20178;-85
2022/06/11 03:24:07;;;;;;;9.25;4.57;;;11.60;99.90;;;;;;5033202;28;20268;-83
2022/06/11 03:26:33;;;;;;;6.03;4.93;;;11.60;99.90;;;;;;5023964;28;20228;-85
2022/06/11 03:28:59;;;;;;;9.77;4.25;;;11.70;99.90;;;;;;5034178;28;20186;-82
2022/06/11 03:31:25;;;;;;;8.93;4.70;;;13.10;99.90;;;;;;5034622;28;20251;-85
2022/06/11 03:33:51;;;;;;;8.93;5.40;;;;;;;;;;5046544;28;20416;-80
2022/06/11 03:36:17;;;;;;;6.80;5.00;;;11.70;99.90;;;;;;5037156;28;20682;-81
2022/06/11 03:38:45;;;;;;;7.53;5.40;;;11.80;99.90;;;;;;5050938;28;20421;-86
2022/06/11 03:41:11;;;;;;;6.45;4.93;;;11.80;99.90;;;;;;5034803;28;20189;-82
2022/06/11 03:43:37;;;;;;;7.60;4.50;;;11.90;99.90;;;;;;5020147;28;20577;-82
2022/06/11 03:46:06;;;;;;;5.20;4.45;;;12.00;99.90;;;;;;5034326;28;20205;-80
2022/06/11 03:48:32;;;;;;;9.70;3.85;;;12.10;99.90;;;;;;5056772;28;20193;-85
2022/06/11 03:50:59;;;;;;;11.20;7.97;;;12.30;99.90;;;;;;5034137;28;20201;-86
2022/06/11 03:53:27;;;;;;;12.43;8.15;;;12.30;99.90;;;;;;5037335;28;20443;-86
2022/06/11 03:55:52;;;;;;;8.73;5.60;;;12.30;99.90;;;;;;5044256;28;20213;-85
2022/06/11 03:58:19;;;;;;;10.30;5.33;;;;;;;;;;5038490;28;20177;-81
2022/06/11 04:03:30;;;;;;;6.80;4.72;;;12.70;99.90;;;;;;5033590;28;20188;-84
2022/06/11 04:05:57;;;;;;;8.70;4.57;;;12.90;99.90;;;;;;5033392;28;20194;-84
2022/06/11 04:08:25;;;;;;;5.35;4.22;;;13.00;99.90;;;;;;5031192;28;20709;-86
2022/06/11 04:10:53;;;;;;;8.07;4.95;;;13.20;99.90;;;;;;5031961;28;20217;-83
2022/06/11 04:13:20;;;;;;;7.53;4.30;;;13.50;99.90;;;;;;5033676;28;20289;-82
2022/06/11 04:15:46;;;;;;;6.95;4.15;;;13.50;99.90;;;;;;5048317;28;20481;-85
2022/06/11 04:18:28;;;;;;;9.60;5.30;;;14.90;99.90;;;;;;5032336;28;20198;-86
2022/06/11 04:20:54;;;;;;;10.27;4.80;;;17.10;99.90;;;;;;5032585;28;20188;-84
2022/06/11 04:23:19;;;;;;;9.13;4.97;;;19.10;99.90;;;;;;5031314;28;20444;-84
2022/06/11 04:25:45;;;;;;;7.70;5.53;;;;;;;;;;5029619;28;20198;-83
2022/06/11 04:28:12;;;;;;;5.83;5.10;;;22.70;99.90;;;;;;5031653;28;20206;-84
2022/06/11 04:30:38;;;;;;;6.77;4.80;;;;;;;;;;5031931;28;20428;-85
2022/06/11 04:33:04;;;;;;;5.70;4.97;;;;;;;;;;5032294;28;20424;-84
2022/06/11 04:35:30;;;;;;;6.77;4.60;;;;;;;;;;5031421;28;21230;-82
2022/06/11 04:37:56;;;;;;;5.70;4.40;;;;;;;;;;5031582;28;20412;-85
2022/06/11 04:40:22;;;;;;;7.07;5.50;;;;;;;;;;5043396;28;20500;-83
2022/06/11 04:42:48;;;;;;;7.10;4.30;;;;;;;;;;5044100;28;20490;-86
2022/06/11 04:45:16;;;;;;;6.70;5.50;;;;;;;;;;5032276;28;20530;-86
2022/06/11 04:47:42;;;;;;;6.13;5.30;;;;;;;;;;5030757;28;20472;-82
2022/06/11 04:50:08;;;;;;;5.90;5.30;;;;;;;;;;5044100;28;20438;-80
2022/06/11 04:52:34;;;;;;;6.47;5.33;;;;;;;;;;5030066;28;20481;-82
2022/06/11 04:55:00;;;;;;;8.70;5.90;;;;;;;;;;5029674;28;21067;-85
2022/06/11 04:57:26;;;;;;;7.37;6.20;;;;;;;;;;5029415;28;20438;-82
2022/06/11 04:59:52;;;;;;;7.47;5.80;;;;;;;;;;5029020;28;20449;-83
2022/06/11 05:02:20;;;;;;;8.50;6.97;;;;;;;;;;5032241;28;21027;-82
2022/06/11 05:04:46;;;;;;;10.77;7.20;;;;;;;;;;5029632;28;20598;-84
2022/06/11 05:07:12;;;;;;;10.63;8.00;;;;;;;;;;5030334;28;20559;-84
2022/06/11 05:09:38;;;;;;;8.63;7.83;;;;;;;;;;5029520;28;20485;-84
2022/06/11 05:12:04;;;;;;;7.93;7.23;;;;;;;;;;5017082;28;20859;-84
2022/06/11 05:14:30;;;;;;;11.90;7.80;;;;;;;;;;5029296;28;20422;-85
2022/06/11 05:16:56;;;;;;;9.70;8.90;;;;;;;;;;5028705;28;20459;-85
2022/06/11 05:19:22;;;;;;;9.20;8.50;;;;;;;;;;5029777;28;20442;-86
2022/06/11 05:21:50;;;;;;;9.70;8.90;;;37.40;50.00;;;;;;5032622;28;20429;-83
2022/06/11 05:24:16;;;;;;;11.03;9.93;;;;;;;;;;5027160;28;20504;-85
2022/06/11 05:26:49;;;;;;;11.07;10.07;;;37.90;49.00;;;;;;5027985;28;20485;-86
2022/06/11 05:29:32;;;;;;;10.90;10.20;;;38.20;47.10;;;;;;5027919;28;20509;-84
2022/06/11 05:31:58;;;;;;;10.93;10.13;;;;;;;;;;5025478;28;20507;-84
2022/06/11 05:34:25;;;;;;;12.27;11.50;;;40.00;45.70;;;;;;5042416;28;20835;-81
2022/06/11 05:36:51;;;;;;;11.83;11.17;;;;;;;;;;5029691;28;20417;-82
2022/06/11 05:39:17;;;;;;;13.07;12.30;;;;;;;;;;5028906;28;20407;-83
2022/06/11 05:41:43;;;;;;;13.97;13.00;;;;;;;;;;5027861;28;20447;-87
2022/06/11 05:44:09;;;;;;;13.13;12.23;;;;;;;;;;5027805;28;20436;-84
2022/06/11 05:46:35;;;;;;;12.50;11.60;;;;;;;;;;5027198;28;20528;-84
2022/06/11 05:49:06;;;;;;;12.93;11.93;;;40.90;41.40;;;;;;5027849;28;20443;-84
2022/06/11 05:51:40;;;;;;;13.67;12.47;;;41.30;41.00;;;;;;5029501;28;20456;-85
2022/06/11 05:54:14;;;;;;;14.67;13.77;;;41.70;40.40;;;;;;5026992;28;20432;-81
2022/06/11 05:56:40;;;;;;;14.10;13.10;;;;;;;;;;5028813;28;20444;-86
2022/06/11 05:59:11;;;;;;;14.03;13.03;;;41.00;40.00;;;;;;5028859;28;20435;-85
2022/06/11 06:01:39;;;;;;;15.00;13.80;;;41.80;39.90;;;;;;5028215;28;20924;-86
2022/06/11 06:04:05;;;;;;;14.60;13.80;;;;;;;;;;5031669;28;20502;-81
2022/06/11 06:06:31;;;;;;;16.23;15.20;;;;;;;;;;5043569;28;20475;-85
2022/06/11 06:08:57;;;;;;;17.10;15.77;;;;;;;;;;5039340;28;20417;-85
2022/06/11 06:11:25;;;;;;;15.63;14.63;;;;;;;;;;5029479;28;20420;-87
2022/06/11 06:13:51;;;;;;;18.30;17.30;;;;;;;;;;5043634;28;20459;-82
2022/06/11 06:16:23;;;;;;;20.90;19.80;;;43.70;37.10;;;;;;5039544;28;20412;-88
2022/06/11 06:18:49;;;;;;;21.53;20.10;;;43.30;35.60;;;;;;5027462;28;20423;-86
2022/06/11 06:21:17;;;;;;;17.17;16.07;;;42.50;36.80;;;;;;5027121;28;20428;-86
2022/06/11 06:23:43;;;;;;;18.93;17.83;;;;;;;;;;5026260;28;20497;-83
2022/06/11 06:26:09;;;;;;;20.37;18.97;;;;;;;;;;5027389;28;20441;-86
2022/06/11 06:28:35;;;;;;;21.37;20.07;;;;;;;;;;5027123;28;21070;-86
2022/06/11 06:31:03;;;;;;;19.67;18.03;;;40.30;37.30;;;;;;5053925;22;20473;-85
2022/06/11 06:33:30;;;;;;;24.37;22.77;;;39.40;36.40;;;;;;5070771;28;20410;-83
2022/06/11 06:36:01;;;;;;;24.43;22.93;;;38.80;39.10;;;;;;5055415;28;20446;-84
2022/06/11 06:38:27;;;;;;;25.17;23.60;;;;;;;;;;5070150;28;20411;-85
2022/06/11 06:40:53;;;;;;;15.63;14.53;;;;;;;;;;5072717;28;20410;-85
2022/06/11 06:43:19;;;;;;;15.20;14.23;;;;;;;;;;5070954;28;20430;-86
2022/06/11 06:45:45;;;;;;;17.10;16.13;;;;;;;;;;5074778;28;20489;-85
2022/06/11 06:48:11;;;;;;;18.00;16.57;;;;;;;;;;5075166;28;20461;-85
2022/06/11 06:50:37;;;;;;;17.27;15.90;;;;;;;;;;5071669;28;20442;-85
2022/06/11 06:53:03;;;;;;;19.70;17.40;;;;;;;;;;5071903;28;20961;-85
2022/06/11 06:55:29;;;;;;;15.83;14.17;;;;;;;;;;5073475;28;20411;-84
2022/06/11 06:57:55;;;;;;;15.60;14.50;;;;;;;;;;5071156;28;20430;-84
2022/06/11 07:00:21;;;;;;;16.23;15.23;;;;;;;;;;5070086;28;20431;-86
2022/06/11 07:02:47;;;;;;;14.77;13.87;;;;;;;;;;5053984;28;20514;-86
2022/06/11 07:05:15;;;;;;;14.90;14.00;;;41.10;37.60;;;;;;5071379;28;20411;-85
2022/06/11 07:07:41;;;;;;;15.90;14.70;;;;;;;;;;5072049;28;20486;-84
2022/06/11 07:10:08;;;;;;;17.13;16.07;;;41.50;37.80;;;;;;5054052;28;20495;-84
2022/06/11 07:12:34;;;;;;;13.20;12.30;;;;;;;;;;5070807;28;20808;-85
2022/06/11 07:15:01;;;;;;;16.30;15.10;;;;;;;;;;5071128;28;20525;-85
2022/06/11 07:17:32;;;;;;;15.90;14.90;;;44.40;33.20;;;;;;5057822;28;20856;-85
2022/06/11 07:20:01;;;;;;;17.40;16.30;;;44.00;33.10;;;;;;5075358;28;20425;-85
2022/06/11 07:22:32;;;;;;;14.87;13.80;;;42.30;33.90;;;;;;5075481;28;20685;-85
2022/06/11 07:25:00;;;;;;;16.43;15.53;;;42.50;35.70;;;;;;5075791;28;20949;-86
2022/06/11 07:27:29;;;;;;;18.43;16.90;;;43.70;35.50;;;;;;5056106;28;20458;-85
2022/06/11 07:30:08;;;;;;;14.37;13.37;;;43.10;34.90;;;;;;5055485;28;20434;-86
2022/06/11 07:32:35;;;;;;;16.10;15.30;;;;;;;;;;5074363;28;20490;-85
2022/06/11 07:35:05;;;;;;;18.10;16.47;;;40.80;36.20;;;;;;5074792;28;20512;-85
2022/06/11 07:37:34;;;;;;;12.80;11.90;;;40.30;37.40;;;;;;5077007;28;20434;-85
2022/06/11 07:40:00;;;;;;;21.03;19.73;;;;;;;;;;5074501;28;20776;-85
2022/06/11 07:42:26;;;;;;;20.03;18.87;;;;;;;;;;5061057;28;20433;-86
2022/06/11 07:44:52;;;;;;;12.97;11.80;;;;;;;;;;5077914;28;20418;-85
2022/06/11 07:47:53;;;;;;;10.97;10.17;;;;;;;;;;5059517;28;20200;-85
2022/06/11 07:50:04;;;;;;;13.63;12.83;;;42.50;34.90;;;;;;5074456;28;20526;-85
2022/06/11 07:52:30;;;;;;;12.93;12.03;;;;;;;;;;5074978;28;20430;-86
2022/06/11 07:54:56;;;;;;;12.33;11.30;;;;;;;;;;5074650;28;20407;-86
2022/06/11 07:57:22;;;;;;;13.63;12.53;;;;;;;;;;5074313;28;20204;-85
2022/06/11 07:59:48;;;;;;;11.33;10.63;;;;;;;;;;5075796;28;20514;-85
2022/06/11 08:02:14;;;;;;;9.47;8.87;;;;;;;;;;5075308;28;20204;-85
2022/06/11 08:04:40;;;;;;;8.37;7.40;;;;;;;;;;5074133;28;20476;-84
2022/06/11 08:07:06;;;;;;;13.20;12.20;;;;;;;;;;5055166;28;20212;-86
2022/06/11 08:09:32;;;;;;;15.70;14.50;;;;;;;;;;5074091;28;20429;-85
2022/06/11 08:11:58;;;;;;;12.87;12.03;;;;;;;;;;5074184;28;20541;-84
2022/06/11 08:14:24;;;;;;;14.20;13.00;;;;;;;;;;5073507;28;20488;-86
2022/06/11 08:16:50;;;;;;;14.47;13.50;;;;;;;;;;5074673;28;20433;-85
2022/06/11 08:19:16;;;;;;;11.13;10.27;;;;;;;;;;5057127;28;20426;-85
2022/06/11 08:21:42;;;;;;;14.00;12.93;;;;;;;;;;5073310;28;20259;-86
2022/06/11 08:24:08;;;;;;;13.30;12.30;;;;;;;;;;5072038;28;20430;-84
2022/06/11 08:26:35;;;;;;;13.43;12.53;;;;;;;;;;5074492;28;21087;-85
2022/06/11 08:29:01;;;;;;;12.23;11.37;;;;;;;;;;5073529;28;20750;-85
2022/06/11 08:31:27;;;;;;;13.23;12.43;;;;;;;;;;5073686;28;20525;-85
2022/06/11 08:33:53;;;;;;;12.60;11.90;;;;;;;;;;5073320;28;20437;-85
2022/06/11 08:36:19;;;;;;;12.87;12.10;;;;;;;;;;5073085;28;20446;-85
2022/06/11 08:38:45;;;;;;;13.40;12.50;;;;;;;;;;5073982;28;20268;-85
2022/06/11 08:41:17;;;;;;;13.23;12.33;;;40.90;30.90;;;;;;5072813;28;20422;-86
2022/06/11 08:43:55;;;;;;;11.30;10.67;;;38.80;43.10;;;;;;5053803;28;20434;-85
2022/06/11 08:46:24;;;;;;;7.80;7.03;;;36.10;34.50;;;;;;5072341;28;20500;-86
2022/06/11 08:49:02;;;;;;;11.97;11.10;;;36.80;43.20;;;;;;5064927;28;20435;-85
2022/06/11 08:52:02;;;;;;;10.13;9.20;;;38.50;45.70;;;;;;5072925;28;20414;-86
2022/06/11 08:54:37;;;;;;;6.40;3.53;;;39.90;39.60;;;;;;5073078;28;21070;-84
2022/06/11 08:57:40;;;;;;;6.93;5.50;;;41.80;47.50;;;;;;5073240;28;20441;-85
2022/06/11 09:00:22;;;;;;;18.97;17.50;;;43.20;32.00;;;;;;5055546;28;20430;-85
2022/06/11 09:03:20;;;;;;;16.37;15.23;;;42.30;31.60;;;;;;5073228;28;20438;-85
2022/06/11 09:06:11;;;;;;;18.27;17.27;;;41.70;32.30;;;;;;5072865;28;20958;-85
2022/06/11 09:08:58;;;;;;;12.10;11.30;;;42.90;30.10;;;;;;5071190;28;20432;-86
2022/06/11 09:11:52;;;;;;;19.80;18.80;;;43.50;29.60;;;;;;5072893;28;20486;-85
2022/06/11 09:14:43;;;;;;;10.23;9.47;;;42.70;28.40;;;;;;5072276;28;20450;-85
2022/06/11 09:17:36;;;;;;;6.50;5.87;;;40.50;37.80;;;;;;5072309;28;20468;-85
2022/06/11 09:20:28;;;;;;;5.67;5.37;;;40.90;33.50;;;;;;5071456;28;20427;-86
2022/06/11 09:23:05;;;;;;;11.50;10.90;;;42.20;44.40;;;;;;5062484;28;20473;-85
2022/06/11 09:25:44;;;;;;;9.40;8.80;;;41.50;30.10;;;;;;5070098;28;20469;-85
2022/06/11 09:28:10;;;;;;;6.83;6.23;;;;;;;;;;5072032;28;20472;-85
2022/06/11 09:30:38;;;;;;;17.73;16.83;;;39.50;48.30;;;;;;5071689;28;20410;-85
2022/06/11 09:33:04;;;;;;;7.60;7.10;;;;;;;;;;5070796;28;20666;-84
2022/06/11 09:35:41;;;;;;;12.47;11.50;;;41.40;32.60;;;;;;5071300;28;20518;-85
2022/06/11 09:38:21;;;;;;;9.20;8.60;;;41.50;31.00;;;;;;5060097;28;20504;-84
2022/06/11 09:40:54;;;;;;;9.40;8.80;;;40.10;33.40;;;;;;5051438;28;20853;-85
2022/06/11 09:43:47;;;;;;;7.63;6.93;;;41.20;32.00;;;;;;5074250;28;20415;-85
2022/06/11 09:46:29;;;;;;;9.30;8.73;;;42.60;30.40;;;;;;5071326;28;20511;-86
2022/06/11 09:48:55;;;;;;;10.97;10.17;;;;;;;;;;5070264;28;20946;-86
2022/06/11 09:51:28;;;;;;;9.93;9.03;;;40.30;30.00;;;;;;5060263;28;20702;-85
2022/06/11 09:54:11;;;;;;;16.13;15.20;;;37.70;43.20;;;;;;5070872;28;20192;-84
2022/06/11 09:56:41;;;;;;;16.10;15.23;;;37.30;45.30;;;;;;5070153;28;20469;-85
2022/06/11 09:59:19;;;;;;;16.03;15.03;;;36.60;32.00;;;;;;5072759;28;20429;-84
2022/06/11 10:01:59;;;;;;;15.97;15.00;;;35.50;41.10;;;;;;5072532;28;20413;-85
2022/06/11 10:04:31;;;;;;;16.87;15.70;;;36.40;44.70;;;;;;5072719;28;20954;-85
2022/06/11 10:07:10;;;;;;;15.17;14.23;;;38.30;37.10;;;;;;5072003;28;20473;-85
2022/06/11 10:09:44;;;;;;;16.97;15.60;;;40.10;32.20;;;;;;5072495;28;20465;-85
2022/06/11 10:12:36;;;;;;;16.93;15.90;;;40.20;36.00;;;;;;5069462;28;20443;-86
2022/06/11 10:15:25;;;;;;;16.00;15.23;;;38.60;40.20;;;;;;5075097;28;20422;-85
2022/06/11 10:18:02;;;;;;;16.57;15.77;;;37.70;43.80;;;;;;5071880;28;20539;-85
2022/06/11 10:20:37;;;;;;;14.60;13.90;;;37.60;36.60;;;;;;5074150;28;20484;-87
2022/06/11 10:23:31;;;;;;;14.50;13.63;;;35.90;36.30;;;;;;5073506;28;20430;-84
2022/06/11 10:26:09;;;;;;;15.87;14.80;;;33.80;43.70;;;;;;5059941;28;20896;-86
2022/06/11 10:28:51;;;;;;;13.00;11.90;;;31.70;40.30;;;;;;5076577;28;20458;-86
2022/06/11 10:31:44;;;;;;;12.03;11.13;;;31.60;43.90;;;;;;5074571;28;20428;-83
2022/06/11 10:34:22;;;;;;;10.37;9.77;;;31.40;44.00;;;;;;5063612;28;20959;-86
2022/06/11 10:37:07;;;;;;;10.60;9.00;;;31.20;42.10;;;;;;5074410;28;20440;-84
2022/06/11 10:39:45;;;;;;;8.87;8.27;;;30.30;45.50;;;;;;5061581;28;20482;-85
2022/06/11 10:42:18;;;;;;;8.23;7.73;;;30.20;46.50;;;;;;5055803;28;20442;-82
2022/06/11 10:44:49;;;;;;;7.50;6.80;;;29.90;47.90;;;;;;5072539;28;20491;-84
2022/06/11 10:47:25;;;;;;;5.70;5.23;;;28.70;49.90;;;;;;5073590;28;20801;-85
2022/06/11 10:50:15;;;;;;;6.60;6.00;;;28.40;48.20;;;;;;5076796;28;20446;-83
2022/06/11 10:53:19;;;;;;;5.83;5.43;;;28.70;49.60;;;;;;5077539;28;20766;-83
2022/06/11 10:55:54;;;;;;;5.17;4.77;;;28.20;49.40;;;;;;5078905;28;20428;-83
2022/06/11 10:58:46;;;;;;;6.53;5.27;;;28.20;49.80;;;;;;5075706;28;20522;-83
2022/06/11 11:01:19;;;;;;;6.93;5.10;;;28.00;51.90;;;;;;5076605;28;20412;-83
2022/06/11 11:03:55;;;;;;;4.37;4.00;;;28.70;50.90;;;;;;5076824;28;20432;-83
2022/06/11 11:06:27;;;;;;;5.70;4.70;;;28.70;49.70;;;;;;5077660;28;20451;-84
2022/06/11 11:08:56;;;;;;;6.73;4.20;;;28.50;51.20;;;;;;5078018;28;20436;-84
2022/06/11 11:11:23;;;;;;;5.23;4.53;;;28.00;52.30;;;;;;5078068;28;20411;-83
2022/06/11 11:13:56;;;;;;;8.97;3.97;;;27.70;53.10;;;;;;5076962;28;20427;-83
2022/06/11 11:16:30;;;;;;;5.43;4.67;;;27.60;52.80;;;;;;5077911;28;20446;-83
2022/06/11 11:19:11;;;;;;;6.00;5.00;;;27.50;54.10;;;;;;5076844;28;20905;-86
2022/06/11 11:21:40;;;;;;;4.03;3.50;;;27.20;54.40;;;;;;5074295;28;20442;-85
2022/06/11 11:24:15;;;;;;;4.00;3.43;;;27.10;54.40;;;;;;5075390;28;20949;-85
2022/06/11 11:26:47;;;;;;;7.40;3.57;;;27.30;54.00;;;;;;5057756;28;20453;-85
2022/06/11 11:29:18;;;;;;;4.73;3.80;;;27.30;54.70;;;;;;5075484;28;20435;-84
2022/06/11 11:32:12;;;;;;;12.20;4.10;;;27.30;53.20;;;;;;5075396;28;20453;-85
2022/06/11 11:34:48;;;;;;;5.03;4.50;;;27.60;56.00;;;;;;5045561;28;20438;-84
2022/06/11 11:37:13;;;;;;;5.30;3.60;;;;;;;;;;5076369;28;20438;-85
2022/06/11 11:39:50;;;;;;;4.73;4.33;;;27.90;51.70;;;;;;5075957;28;20900;-84
2022/06/11 11:42:25;;;;;;;6.33;4.17;;;27.90;52.20;;;;;;5057539;28;20584;-85
2022/06/11 11:44:57;;;;;;;6.50;4.10;;;28.00;53.70;;;;;;5054734;28;20437;-83
2022/06/11 11:47:37;;;;;;;6.07;4.10;;;28.00;52.50;;;;;;5073815;28;20519;-84
2022/06/11 11:50:27;;;;;;;5.10;4.60;;;28.10;54.30;;;;;;5074881;28;20439;-85
2022/06/11 11:53:01;;;;;;;5.53;3.70;;;28.30;54.30;;;;;;5054263;28;20431;-84
2022/06/11 11:55:30;;;;;;;3.47;3.17;;;28.60;53.20;;;;;;5072736;28;20801;-83
2022/06/11 11:58:06;;;;;;;8.03;3.83;;;28.20;53.30;;;;;;5054959;28;20459;-85
2022/06/11 12:00:44;;;;;;;3.30;3.10;;;28.20;53.90;;;;;;5072926;28;20418;-83
2022/06/11 12:03:21;;;;;;;5.60;3.10;;;27.10;54.90;;;;;;5074118;28;20417;-84
2022/06/11 12:05:51;;;;;;;3.27;3.07;;;26.70;56.60;;;;;;5074285;28;20426;-85
2022/06/11 12:08:23;;;;;;;6.73;3.37;;;26.60;57.40;;;;;;5057306;28;20545;-84
2022/06/11 12:10:51;;;;;;;4.53;3.60;;;26.50;57.50;;;;;;5075477;28;20422;-84
2022/06/11 12:13:25;;;;;;;7.23;3.40;;;26.80;57.80;;;;;;5075043;28;20411;-84
2022/06/11 12:16:00;;;;;;;3.30;3.00;;;27.50;55.50;;;;;;5075151;28;20824;-84
2022/06/11 12:18:42;;;;;;;4.90;3.30;;;27.40;56.10;;;;;;5058364;28;20422;-83
2022/06/11 12:21:25;;;;;;;4.83;3.20;;;27.30;57.70;;;;;;5077328;28;20452;-84
2022/06/11 12:24:00;;;;;;;6.20;3.30;;;27.10;57.70;;;;;;5075336;28;20441;-84
2022/06/11 12:26:28;;;;;;;5.83;3.67;;;26.80;56.10;;;;;;5072768;28;20441;-85
2022/06/11 12:29:18;;;;;;;10.67;3.23;;;26.70;57.70;;;;;;5073991;28;20443;-84
2022/06/11 12:31:44;;;;;;;4.67;2.93;;;26.90;57.40;;;;;;5074565;28;20445;-83
2022/06/11 12:34:18;;;;;;;8.43;3.43;;;26.90;57.80;;;;;;5075165;28;20439;-84
2022/06/11 12:37:14;;;;;;;6.80;3.80;;;26.90;59.50;;;;;;5060717;28;20197;-85
2022/06/11 12:39:51;;;;;;;6.23;3.07;;;27.00;57.80;;;;;;5068433;22;20405;-84
2022/06/11 12:42:40;;;;;;;4.20;3.07;;;27.10;58.50;;;;;;5074410;28;20413;-84
2022/06/11 12:45:35;;;;;;;3.30;2.87;;;27.30;59.80;;;;;;5062101;28;20974;-84
2022/06/11 12:48:16;;;;;;;4.17;3.00;;;26.80;56.60;;;;;;5055682;28;20465;-83
2022/06/11 12:51:03;;;;;;;6.20;2.87;;;26.90;58.40;;;;;;5073469;28;20488;-84
2022/06/11 12:53:50;;;;;;;7.47;3.60;;;26.60;57.80;;;;;;5076472;28;20489;-83
2022/06/11 12:56:23;;;;;;;4.23;3.10;;;26.50;60.40;;;;;;5075836;28;20441;-83
2022/06/11 12:59:23;;;;;;;6.97;3.13;;;27.00;58.20;;;;;;5056982;28;21060;-83
2022/06/11 13:02:02;;;;;;;8.33;3.27;;;27.10;59.40;;;;;;5074735;28;20499;-83
2022/06/11 13:04:57;;;;;;;5.13;3.17;;;27.20;56.60;;;;;;5074455;28;20508;-83
2022/06/11 13:07:48;;;;;;;7.33;2.53;;;27.20;57.60;;;;;;5074791;28;21065;-82
2022/06/11 13:10:30;;;;;;;3.37;3.07;;;27.20;55.70;;;;;;5064359;28;20523;-84
2022/06/11 13:13:28;;;;;;;6.17;3.03;;;27.20;58.10;;;;;;5074204;28;20449;-83
2022/06/11 13:16:12;;;;;;;3.97;2.80;;;27.00;59.20;;;;;;5073069;28;20440;-84
2022/06/11 13:19:00;;;;;;;6.20;2.70;;;27.20;59.50;;;;;;5072843;28;20490;-82
2022/06/11 13:22:04;;;;;;;3.33;2.90;;;27.40;57.70;;;;;;5074663;28;20438;-84
2022/06/11 13:24:45;;;;;;;5.50;3.70;;;27.00;58.10;;;;;;5054241;28;20495;-83
2022/06/11 13:27:18;;;;;;;5.50;3.20;;;27.20;57.70;;;;;;5073860;28;20895;-83
2022/06/11 13:30:26;;;;;;;4.00;3.20;;;27.70;57.00;;;;;;5072239;28;20460;-83
2022/06/11 13:33:21;;;;;;;5.90;3.50;;;27.70;57.40;;;;;;5054381;28;20431;-84
2022/06/11 13:36:05;;;;;;;3.67;3.37;;;27.90;59.50;;;;;;5061643;28;20429;-84
2022/06/11 13:38:52;;;;;;;3.63;2.63;;;27.60;58.00;;;;;;5066844;28;20418;-84
2022/06/11 13:41:18;;;;;;;7.73;3.10;;;27.20;59.60;;;;;;5073619;28;20812;-84
2022/06/11 13:44:32;;;;;;;4.87;3.27;;;26.70;59.30;;;;;;5072272;28;20516;-83